Time;durP1;ratioP1;P1;durP2;ratioP2;P2;SDS_P1;SDS_P2;PMS_P1;PMS_P2;Temp;Humidity;BMP_temperature;BMP_pressure;BME280_temperature;BME280_humidity;BME280_pressure;Samples;Min_cycle;Max_cycle;Signal;HPM_P1;HPM_P2
2022/09/21 00:02:03;;;;;;;2.10;1.60;;;23.20;40.20;;;;;;6190274;23;20811;-59
2022/09/21 00:04:29;;;;;;;1.60;1.50;;;23.20;40.20;;;;;;6177075;23;20451;-61
2022/09/21 00:06:54;;;;;;;1.90;1.80;;;23.10;40.10;;;;;;6178956;23;20195;-65
2022/09/21 00:09:20;;;;;;;1.87;1.77;;;23.10;40.00;;;;;;6204923;23;20217;-60
2022/09/21 00:11:45;;;;;;;1.80;1.70;;;23.20;40.20;;;;;;6204271;23;20202;-60
2022/09/21 00:14:13;;;;;;;1.77;1.67;;;23.20;40.20;;;;;;6205347;23;20238;-60
2022/09/21 00:16:40;;;;;;;1.60;1.50;;;23.20;40.20;;;;;;6197985;23;20645;-59
2022/09/21 00:19:06;;;;;;;1.80;1.70;;;23.20;40.20;;;;;;6204068;23;20935;-66
2022/09/21 00:21:33;;;;;;;1.77;1.67;;;23.20;40.10;;;;;;6205443;23;20454;-61
2022/09/21 00:23:59;;;;;;;1.77;1.67;;;23.10;40.10;;;;;;6200910;23;20198;-66
2022/09/21 00:26:26;;;;;;;1.67;1.50;;;23.10;40.00;;;;;;6180648;23;20420;-60
2022/09/21 00:28:53;;;;;;;1.70;1.60;;;23.20;40.10;;;;;;6184960;23;20431;-59
2022/09/21 00:31:19;;;;;;;1.60;1.50;;;23.20;40.20;;;;;;6204721;23;20436;-65
2022/09/21 00:33:45;;;;;;;1.80;1.70;;;23.10;40.10;;;;;;6203933;23;20715;-61
2022/09/21 00:36:17;;;;;;;1.60;1.50;;;23.10;40.10;;;;;;6204657;23;20201;-63
2022/09/21 00:38:45;;;;;;;1.80;1.70;;;23.10;40.00;;;;;;6205529;23;20208;-61
2022/09/21 00:41:11;;;;;;;1.80;1.70;;;23.10;40.10;;;;;;6205746;23;20404;-64
2022/09/21 00:43:41;;;;;;;2.10;2.00;;;23.20;40.20;;;;;;6204960;23;20487;-69
2022/09/21 00:46:21;;;;;;;1.80;1.70;;;23.10;40.10;;;;;;6205503;23;20424;-66
2022/09/21 00:48:47;;;;;;;1.80;1.70;;;23.10;40.00;;;;;;6203767;23;20415;-59
2022/09/21 00:51:13;;;;;;;1.90;1.80;;;23.10;40.10;;;;;;6205056;23;20528;-68
2022/09/21 00:53:39;;;;;;;4.60;1.60;;;23.10;40.10;;;;;;6205162;23;20194;-58
2022/09/21 00:56:05;;;;;;;1.60;1.50;;;23.10;40.10;;;;;;6204805;23;20412;-62
2022/09/21 00:58:45;;;;;;;1.60;1.50;;;23.10;40.10;;;;;;6208786;23;20273;-59
2022/09/21 01:01:15;;;;;;;1.70;1.60;;;23.10;40.10;;;;;;6207746;23;20857;-66
2022/09/21 01:03:44;;;;;;;1.60;1.50;;;23.10;40.10;;;;;;6204756;23;20419;-64
2022/09/21 01:06:11;;;;;;;1.73;1.63;;;23.10;40.10;;;;;;6207637;23;20801;-60
2022/09/21 01:08:38;;;;;;;1.63;1.53;;;23.10;40.10;;;;;;6204989;23;20443;-60
2022/09/21 01:11:09;;;;;;;1.67;1.57;;;23.10;40.10;;;;;;6209550;23;20412;-66
2022/09/21 01:13:56;;;;;;;1.80;1.70;;;23.10;40.10;;;;;;6206470;23;20424;-63
2022/09/21 01:16:47;;;;;;;1.73;1.63;;;23.10;40.10;;;;;;6207003;23;20454;-59
2022/09/21 01:19:37;;;;;;;2.17;1.70;;;23.10;40.00;;;;;;6182621;22;20507;-59
2022/09/21 01:22:23;;;;;;;1.70;1.60;;;23.10;40.10;;;;;;6175526;23;20416;-69
2022/09/21 01:25:03;;;;;;;1.67;1.57;;;23.10;40.10;;;;;;6195950;23;20420;-60
2022/09/21 01:27:54;;;;;;;2.63;2.03;;;23.10;40.10;;;;;;6207214;23;20419;-60
2022/09/21 01:30:22;;;;;;;1.77;1.53;;;23.10;40.00;;;;;;6184495;23;20415;-61
2022/09/21 01:33:03;;;;;;;2.07;1.97;;;23.10;40.10;;;;;;6204167;23;20431;-61
2022/09/21 01:35:35;;;;;;;1.73;1.63;;;23.10;40.10;;;;;;6185913;23;20417;-62
2022/09/21 01:38:12;;;;;;;1.90;1.80;;;23.10;40.10;;;;;;6186647;22;20419;-62
2022/09/21 01:40:42;;;;;;;2.00;1.90;;;23.10;40.10;;;;;;6204327;23;20469;-61
2022/09/21 01:43:14;;;;;;;1.70;1.60;;;23.10;40.10;;;;;;6205693;23;20434;-62
2022/09/21 01:45:48;;;;;;;1.70;1.60;;;23.10;40.10;;;;;;6205934;23;20420;-59
2022/09/21 01:48:16;;;;;;;1.67;1.57;;;23.10;40.10;;;;;;6205317;23;20449;-59
2022/09/21 01:50:47;;;;;;;1.80;1.70;;;23.10;40.10;;;;;;6205125;23;20412;-65
2022/09/21 01:53:28;;;;;;;1.60;1.50;;;23.10;40.10;;;;;;6204741;23;20431;-59
2022/09/21 01:56:00;;;;;;;1.77;1.50;;;23.10;40.10;;;;;;6204569;23;20474;-60
2022/09/21 01:58:41;;;;;;;1.60;1.50;;;23.10;40.10;;;;;;6204815;23;20419;-61
2022/09/21 02:01:13;;;;;;;1.50;1.40;;;23.10;40.10;;;;;;6178796;23;20487;-67
2022/09/21 02:03:46;;;;;;;1.80;1.70;;;23.10;40.10;;;;;;6189199;23;20477;-59
2022/09/21 02:06:13;;;;;;;1.63;1.53;;;23.10;40.00;;;;;;6206336;23;20414;-63
2022/09/21 02:08:39;;;;;;;1.70;1.60;;;23.10;40.10;;;;;;6205183;23;20855;-59
2022/09/21 02:11:06;;;;;;;1.80;1.70;;;23.10;40.10;;;;;;6204278;23;20422;-60
2022/09/21 02:13:35;;;;;;;194.33;17.13;;;23.10;40.10;;;;;;6207303;23;20202;-65
2022/09/21 02:16:15;;;;;;;1.70;1.60;;;23.10;40.00;;;;;;6203579;23;20519;-61
2022/09/21 02:19:01;;;;;;;2.63;1.80;;;23.10;40.10;;;;;;6206160;23;20431;-68
2022/09/21 02:21:34;;;;;;;1.90;1.80;;;23.10;40.00;;;;;;6204846;23;20455;-65
2022/09/21 02:24:31;;;;;;;2.27;1.80;;;23.10;40.10;;;;;;6205273;23;20412;-59
2022/09/21 02:27:04;;;;;;;1.77;1.67;;;23.10;40.80;;;;;;6198368;23;20875;-61
2022/09/21 02:29:50;;;;;;;1.87;1.77;;;23.10;40.10;;;;;;6200482;23;20502;-64
2022/09/21 02:32:34;;;;;;;1.60;1.50;;;23.10;40.00;;;;;;6176565;23;20424;-59
2022/09/21 02:35:03;;;;;;;1.73;1.63;;;23.10;40.00;;;;;;6199229;23;20480;-65
2022/09/21 02:37:54;;;;;;;1.60;1.50;;;23.10;40.00;;;;;;6193251;23;20425;-61
2022/09/21 02:40:28;;;;;;;3.00;1.60;;;23.10;40.00;;;;;;6193144;23;20436;-60
2022/09/21 02:42:58;;;;;;;3.47;1.70;;;23.10;40.00;;;;;;6175238;23;20429;-59
2022/09/21 02:45:31;;;;;;;2.53;1.70;;;23.10;40.10;;;;;;6174233;23;20455;-59
2022/09/21 02:48:04;;;;;;;1.70;1.60;;;23.10;40.00;;;;;;6205686;23;20466;-59
2022/09/21 02:50:41;;;;;;;1.77;1.67;;;23.10;40.00;;;;;;6175548;23;20415;-67
2022/09/21 02:53:09;;;;;;;2.80;1.80;;;23.10;40.00;;;;;;6175669;23;20913;-62
2022/09/21 02:55:35;;;;;;;1.90;1.80;;;23.10;40.00;;;;;;6175954;23;20412;-62
2022/09/21 02:58:05;;;;;;;1.70;1.60;;;23.10;40.10;;;;;;6174140;23;20409;-60
2022/09/21 03:00:32;;;;;;;1.77;1.67;;;23.10;40.00;;;;;;6174438;23;20421;-60
2022/09/21 03:02:58;;;;;;;1.97;1.87;;;23.10;40.10;;;;;;6178720;23;20424;-58
2022/09/21 03:05:24;;;;;;;2.03;1.67;;;23.10;40.00;;;;;;6174037;23;20964;-59
2022/09/21 03:07:49;;;;;;;1.50;1.40;;;23.10;40.00;;;;;;6174862;23;20194;-66
2022/09/21 03:10:15;;;;;;;1.63;1.53;;;23.10;40.00;;;;;;6175041;23;20412;-59
2022/09/21 03:12:43;;;;;;;1.90;1.80;;;23.10;40.00;;;;;;6175230;23;20639;-59
2022/09/21 03:15:09;;;;;;;1.70;1.60;;;23.10;40.00;;;;;;6175899;23;20190;-60
2022/09/21 03:17:34;;;;;;;1.53;1.37;;;23.10;40.00;;;;;;6176262;23;20566;-64
2022/09/21 03:20:01;;;;;;;1.70;1.60;;;23.10;40.00;;;;;;6177335;23;20233;-59
2022/09/21 03:22:26;;;;;;;1.70;1.60;;;23.10;40.00;;;;;;6194398;23;20207;-63
2022/09/21 03:24:56;;;;;;;1.63;1.53;;;23.10;40.00;;;;;;6174347;23;20773;-64
2022/09/21 03:27:22;;;;;;;2.10;1.40;;;23.10;40.00;;;;;;6191253;23;20732;-66
2022/09/21 03:29:48;;;;;;;1.73;1.63;;;23.10;39.90;;;;;;6205761;23;20470;-67
2022/09/21 03:32:14;;;;;;;1.83;1.73;;;23.10;40.00;;;;;;6205434;23;20439;-60
2022/09/21 03:34:40;;;;;;;1.90;1.80;;;23.10;39.90;;;;;;6205105;23;20202;-59
2022/09/21 03:37:07;;;;;;;1.80;1.70;;;23.10;39.90;;;;;;6204896;23;20317;-59
2022/09/21 03:39:33;;;;;;;1.50;1.40;;;23.10;40.00;;;;;;6206033;23;20863;-60
2022/09/21 03:41:58;;;;;;;1.90;1.80;;;23.00;39.90;;;;;;6207304;23;20423;-59
2022/09/21 03:44:24;;;;;;;1.60;1.50;;;23.10;40.00;;;;;;6205183;23;20639;-59
2022/09/21 03:46:50;;;;;;;1.83;1.73;;;23.10;39.90;;;;;;6204840;23;20222;-65
2022/09/21 03:49:16;;;;;;;2.23;2.03;;;23.10;40.00;;;;;;6205129;23;20945;-59
2022/09/21 03:51:42;;;;;;;1.73;1.63;;;23.10;39.90;;;;;;6205042;23;20313;-62
2022/09/21 03:54:08;;;;;;;2.00;1.90;;;23.10;39.90;;;;;;6204622;23;20444;-64
2022/09/21 03:56:33;;;;;;;1.50;1.40;;;23.10;39.90;;;;;;6206511;23;20212;-62
2022/09/21 03:58:59;;;;;;;1.60;1.50;;;23.10;39.90;;;;;;6206238;23;20198;-60
2022/09/21 04:01:25;;;;;;;1.93;1.83;;;23.00;39.80;;;;;;6204386;23;20194;-59
2022/09/21 04:03:50;;;;;;;1.80;1.70;;;23.10;39.90;;;;;;6205078;23;21068;-61
2022/09/21 04:06:17;;;;;;;1.63;1.53;;;23.10;39.90;;;;;;6200287;23;21000;-66
2022/09/21 04:08:42;;;;;;;1.43;1.33;;;23.10;40.00;;;;;;6205499;23;20198;-67
2022/09/21 04:11:12;;;;;;;1.70;1.60;;;23.10;39.90;;;;;;6203636;23;20736;-63
2022/09/21 04:13:38;;;;;;;1.67;1.57;;;23.10;40.00;;;;;;6203397;23;20210;-61
2022/09/21 04:16:04;;;;;;;1.60;1.50;;;23.10;39.90;;;;;;6202958;23;21185;-63
2022/09/21 04:18:31;;;;;;;1.70;1.60;;;23.10;39.90;;;;;;6207048;23;20602;-68
2022/09/21 04:20:57;;;;;;;1.50;1.40;;;23.10;39.90;;;;;;6206556;23;20198;-66
2022/09/21 04:23:22;;;;;;;1.93;1.83;;;23.10;39.90;;;;;;6203471;23;20450;-66
2022/09/21 04:25:51;;;;;;;1.70;1.60;;;23.10;39.90;;;;;;6204065;23;20419;-62
2022/09/21 04:28:17;;;;;;;1.70;1.60;;;23.10;39.80;;;;;;6204287;23;20194;-62
2022/09/21 04:30:42;;;;;;;1.70;1.60;;;23.10;39.80;;;;;;6201729;23;20470;-64
2022/09/21 04:33:08;;;;;;;1.60;1.50;;;23.10;39.80;;;;;;6200343;23;20205;-61
2022/09/21 04:35:33;;;;;;;2.93;2.00;;;23.10;39.70;;;;;;6200108;23;20818;-59
2022/09/21 04:37:59;;;;;;;3.77;1.83;;;23.10;39.70;;;;;;6206821;23;20190;-63
2022/09/21 04:40:24;;;;;;;2.60;1.80;;;23.10;39.60;;;;;;6204433;23;20197;-58
2022/09/21 04:42:52;;;;;;;3.40;1.90;;;23.10;39.60;;;;;;6201850;23;24040;-60
2022/09/21 04:45:18;;;;;;;2.23;1.83;;;23.20;39.70;;;;;;6203938;23;20209;-65
2022/09/21 04:47:44;;;;;;;2.50;1.77;;;23.20;39.70;;;;;;6205381;23;20408;-60
2022/09/21 04:50:10;;;;;;;3.30;1.60;;;23.20;39.70;;;;;;6202644;23;20422;-59
2022/09/21 04:52:35;;;;;;;2.53;1.60;;;23.20;39.70;;;;;;6199603;23;20592;-59
2022/09/21 04:55:01;;;;;;;1.60;1.50;;;23.20;39.70;;;;;;6201561;23;20222;-67
2022/09/21 04:57:26;;;;;;;1.70;1.60;;;23.10;39.60;;;;;;6206906;23;20193;-67
2022/09/21 04:59:52;;;;;;;1.97;1.87;;;23.10;39.60;;;;;;6201117;23;20236;-60
2022/09/21 05:02:18;;;;;;;1.97;1.60;;;23.10;39.50;;;;;;6201655;23;20190;-60
2022/09/21 05:04:43;;;;;;;1.60;1.50;;;23.10;39.50;;;;;;6203612;23;20645;-59
2022/09/21 05:07:09;;;;;;;2.03;1.60;;;23.20;39.60;;;;;;6199797;23;20190;-59
2022/09/21 05:12:18;;;;;;;1.57;1.47;;;23.20;39.60;;;;;;6205287;23;20524;-60
2022/09/21 05:14:44;;;;;;;2.47;1.57;;;23.10;39.60;;;;;;6206045;23;20412;-62
2022/09/21 05:17:11;;;;;;;1.60;1.50;;;23.20;39.60;;;;;;6201637;23;20645;-59
2022/09/21 05:19:36;;;;;;;1.70;1.60;;;23.20;39.60;;;;;;6203631;23;20202;-63
2022/09/21 05:22:02;;;;;;;2.80;1.60;;;23.20;39.60;;;;;;6202559;23;20424;-62
2022/09/21 05:24:28;;;;;;;2.07;1.87;;;23.20;39.60;;;;;;6202739;23;20202;-62
2022/09/21 05:26:53;;;;;;;1.50;1.40;;;23.20;39.60;;;;;;6202590;23;20190;-61
2022/09/21 05:29:19;;;;;;;3.03;1.60;;;23.20;39.60;;;;;;6204757;23;20285;-64
2022/09/21 05:31:53;;;;;;;1.60;1.50;;;23.10;39.50;;;;;;6203279;23;20210;-60
2022/09/21 05:35:05;;;;;;;2.00;1.90;;;23.20;39.60;;;;;;6204584;23;20190;-61
2022/09/21 05:37:46;;;;;;;1.67;1.57;;;23.10;39.50;;;;;;6199354;23;20435;-60
2022/09/21 05:40:12;;;;;;;15.73;1.87;;;23.10;39.50;;;;;;6184132;23;20420;-59
2022/09/21 05:42:38;;;;;;;1.80;1.70;;;23.10;39.40;;;;;;6175443;23;20416;-58
2022/09/21 05:45:04;;;;;;;1.60;1.50;;;23.10;39.50;;;;;;6176540;23;20439;-65
2022/09/21 05:47:57;;;;;;;1.80;1.70;;;23.10;39.40;;;;;;6180425;23;20571;-61
2022/09/21 05:50:48;;;;;;;2.20;2.00;;;23.10;39.30;;;;;;6156749;22;20891;-60
2022/09/21 05:53:38;;;;;;;2.60;1.53;;;23.10;39.40;;;;;;6175552;23;20452;-61
2022/09/21 05:56:15;;;;;;;2.13;1.50;;;23.10;39.40;;;;;;6176794;23;20427;-59
2022/09/21 05:59:22;;;;;;;1.87;1.77;;;23.10;39.30;;;;;;6176672;23;21078;-59
2022/09/21 06:02:20;;;;;;;2.23;1.90;;;23.10;39.30;;;;;;6181892;23;20902;-59
2022/09/21 06:04:46;;;;;;;1.80;1.70;;;23.10;39.30;;;;;;6157647;22;20474;-60
2022/09/21 06:07:12;;;;;;;4.43;1.73;;;23.10;39.30;;;;;;6177287;23;20417;-60
2022/09/21 06:09:37;;;;;;;2.13;1.57;;;23.10;39.30;;;;;;6177584;23;20423;-62
2022/09/21 06:12:03;;;;;;;1.70;1.60;;;23.10;39.30;;;;;;6178041;23;20218;-61
2022/09/21 06:14:29;;;;;;;1.60;1.50;;;23.10;39.30;;;;;;6178767;23;20315;-63
2022/09/21 06:16:54;;;;;;;2.00;1.90;;;23.10;39.30;;;;;;6174092;23;20210;-58
2022/09/21 06:19:20;;;;;;;1.70;1.60;;;23.10;39.30;;;;;;6175987;23;20198;-59
2022/09/21 06:21:45;;;;;;;1.97;1.50;;;23.10;39.30;;;;;;6158124;23;20206;-66
2022/09/21 06:24:11;;;;;;;2.10;1.63;;;23.10;39.30;;;;;;6174883;23;20190;-59
2022/09/21 06:26:37;;;;;;;1.90;1.70;;;23.10;39.30;;;;;;6175032;23;20246;-63
2022/09/21 06:29:03;;;;;;;1.60;1.50;;;23.10;39.20;;;;;;6176810;23;20270;-63
2022/09/21 06:31:29;;;;;;;2.63;2.43;;;23.10;39.30;;;;;;6176176;23;20263;-62
2022/09/21 06:33:55;;;;;;;1.80;1.70;;;23.10;39.30;;;;;;6175019;23;20194;-65
2022/09/21 06:36:21;;;;;;;1.60;1.50;;;23.10;39.30;;;;;;6176502;23;20627;-65
2022/09/21 06:38:46;;;;;;;1.70;1.60;;;23.10;39.20;;;;;;6176752;23;20417;-62
2022/09/21 06:41:12;;;;;;;1.70;1.60;;;23.10;39.20;;;;;;6174345;23;20194;-64
2022/09/21 06:43:37;;;;;;;1.70;1.60;;;23.10;39.20;;;;;;6175724;23;20203;-63
2022/09/21 06:46:03;;;;;;;1.80;1.70;;;23.10;39.20;;;;;;6174957;23;20653;-61
2022/09/21 06:48:31;;;;;;;2.00;1.90;;;23.10;39.20;;;;;;6174255;23;20217;-60
2022/09/21 06:51:02;;;;;;;3.63;1.63;;;23.10;39.20;;;;;;6174608;23;20501;-59
2022/09/21 06:53:29;;;;;;;1.53;1.43;;;23.10;39.20;;;;;;6200304;23;20443;-60
2022/09/21 06:56:06;;;;;;;1.53;1.43;;;23.10;39.20;;;;;;6202329;23;20422;-59
2022/09/21 06:58:33;;;;;;;2.23;1.60;;;23.10;39.20;;;;;;6202730;23;20470;-62
2022/09/21 07:01:05;;;;;;;1.70;1.60;;;23.10;39.20;;;;;;6206924;23;20721;-61
2022/09/21 07:03:30;;;;;;;1.60;1.50;;;23.10;39.20;;;;;;6205629;23;20443;-59
2022/09/21 07:05:56;;;;;;;1.70;1.60;;;23.10;39.30;;;;;;6205139;23;20411;-63
2022/09/21 07:08:22;;;;;;;1.70;1.60;;;23.10;39.30;;;;;;6203557;23;20186;-62
2022/09/21 07:10:48;;;;;;;2.23;1.70;;;23.10;39.20;;;;;;6204229;23;20213;-63
2022/09/21 07:13:15;;;;;;;1.83;1.73;;;23.10;39.20;;;;;;6205513;23;20442;-61
2022/09/21 07:15:40;;;;;;;1.70;1.60;;;23.10;39.20;;;;;;6205822;23;20222;-63
2022/09/21 07:18:13;;;;;;;2.07;1.97;;;23.10;39.20;;;;;;6204758;23;20486;-66
2022/09/21 07:20:39;;;;;;;1.60;1.50;;;23.10;39.20;;;;;;6205495;23;20202;-59
2022/09/21 07:23:14;;;;;;;1.80;1.70;;;23.10;39.30;;;;;;6205453;23;20415;-60
2022/09/21 07:25:43;;;;;;;2.00;1.90;;;23.10;40.10;;;;;;6204153;23;20478;-67
2022/09/21 07:28:09;;;;;;;1.73;1.63;;;23.10;39.30;;;;;;6206175;23;20472;-59
2022/09/21 07:30:36;;;;;;;1.80;1.70;;;23.10;39.20;;;;;;6205491;23;20447;-65
2022/09/21 07:33:02;;;;;;;1.97;1.87;;;23.10;39.20;;;;;;6205962;23;21246;-61
2022/09/21 07:35:28;;;;;;;2.23;2.13;;;23.10;39.20;;;;;;6208282;23;20451;-59
2022/09/21 07:37:56;;;;;;;1.83;1.73;;;23.10;39.30;;;;;;6205001;23;20878;-59
2022/09/21 07:40:22;;;;;;;2.20;2.10;;;23.10;39.30;;;;;;6203952;23;20256;-60
2022/09/21 07:42:47;;;;;;;3.10;1.80;;;23.10;39.30;;;;;;6204553;23;20883;-68
2022/09/21 07:45:13;;;;;;;1.87;1.77;;;23.20;39.30;;;;;;6204364;23;20213;-60
2022/09/21 07:47:38;;;;;;;2.07;1.97;;;23.10;39.20;;;;;;6202622;23;20190;-59
2022/09/21 07:50:04;;;;;;;2.13;2.03;;;23.10;39.30;;;;;;6204362;23;20251;-63
2022/09/21 07:52:30;;;;;;;2.00;1.90;;;23.10;39.20;;;;;;6205277;23;20645;-61
2022/09/21 07:54:55;;;;;;;2.10;2.00;;;23.20;39.30;;;;;;6204639;23;20418;-64
2022/09/21 08:00:05;;;;;;;1.70;1.60;;;23.20;39.30;;;;;;6190174;23;20629;-63
2022/09/21 08:02:31;;;;;;;1.80;1.70;;;23.20;39.30;;;;;;6199438;23;20423;-64
2022/09/21 08:04:56;;;;;;;1.93;1.83;;;23.20;39.30;;;;;;6205032;23;20407;-59
2022/09/21 08:07:22;;;;;;;1.70;1.60;;;23.10;39.20;;;;;;6204284;23;20504;-67
2022/09/21 08:09:49;;;;;;;1.50;1.40;;;23.20;39.30;;;;;;6205057;23;20201;-59
2022/09/21 08:12:19;;;;;;;2.03;1.93;;;23.20;39.30;;;;;;6203430;23;20652;-59
2022/09/21 08:14:46;;;;;;;2.10;2.00;;;23.20;39.30;;;;;;6205463;23;20412;-59
2022/09/21 08:17:12;;;;;;;2.13;1.93;;;23.20;39.30;;;;;;6203831;23;20473;-60
2022/09/21 08:19:38;;;;;;;1.87;1.77;;;23.20;39.40;;;;;;6204123;23;20773;-61
2022/09/21 08:22:05;;;;;;;1.93;1.83;;;23.10;39.30;;;;;;6204558;23;20495;-59
2022/09/21 08:24:31;;;;;;;1.90;1.50;;;23.20;39.50;;;;;;6202894;23;21228;-62
2022/09/21 08:26:58;;;;;;;1.80;1.70;;;23.10;39.30;;;;;;6173943;23;20423;-62
2022/09/21 08:29:24;;;;;;;1.60;1.50;;;23.20;39.40;;;;;;6173852;23;20405;-66
2022/09/21 08:31:51;;;;;;;1.80;1.70;;;23.20;39.40;;;;;;6172655;23;20502;-59
2022/09/21 08:34:18;;;;;;;2.13;1.93;;;23.20;39.40;;;;;;6174154;23;21000;-67
2022/09/21 08:36:44;;;;;;;1.80;1.70;;;23.20;39.30;;;;;;6174051;23;20416;-61
2022/09/21 08:39:10;;;;;;;1.70;1.60;;;23.20;39.40;;;;;;6175364;23;20420;-59
2022/09/21 08:41:42;;;;;;;1.90;1.80;;;23.20;39.30;;;;;;6175718;23;20547;-63
2022/09/21 08:44:16;;;;;;;2.13;2.00;;;23.20;39.30;;;;;;6175271;23;20217;-64
2022/09/21 08:46:45;;;;;;;2.00;1.53;;;23.20;40.10;;;;;;6174420;23;20423;-62
2022/09/21 08:49:21;;;;;;;2.20;2.10;;;23.20;39.40;;;;;;6173983;23;20499;-60
2022/09/21 08:51:53;;;;;;;1.70;1.60;;;23.20;39.30;;;;;;6173396;23;20444;-59
2022/09/21 08:54:33;;;;;;;1.93;1.83;;;23.20;39.40;;;;;;6174380;23;20413;-63
2022/09/21 08:56:59;;;;;;;8.03;1.97;;;23.20;39.30;;;;;;6174637;23;20420;-60
2022/09/21 08:59:25;;;;;;;1.60;1.50;;;23.20;39.40;;;;;;6171668;23;20492;-62
2022/09/21 09:02:11;;;;;;;1.90;1.80;;;23.20;39.40;;;;;;6173874;23;20445;-59
2022/09/21 09:05:14;;;;;;;1.93;1.83;;;23.20;39.30;;;;;;6172102;23;20199;-66
2022/09/21 09:07:40;;;;;;;2.00;1.90;;;23.20;39.30;;;;;;6177782;23;20426;-61
2022/09/21 09:10:19;;;;;;;1.83;1.73;;;23.20;39.40;;;;;;6204232;23;20507;-64
2022/09/21 09:13:17;;;;;;;1.80;1.70;;;23.20;39.30;;;;;;6204588;23;20213;-59
2022/09/21 09:16:02;;;;;;;1.90;1.80;;;23.20;39.40;;;;;;6106876;23;20424;-59
2022/09/21 09:18:32;;;;;;;2.00;1.90;;;23.20;39.30;;;;;;6200395;23;20440;-61
2022/09/21 09:21:03;;;;;;;1.77;1.60;;;23.20;39.30;;;;;;6205066;23;20411;-66
2022/09/21 09:23:44;;;;;;;2.43;1.83;;;23.20;39.40;;;;;;6188133;23;20411;-60
2022/09/21 09:26:44;;;;;;;3.80;2.50;;;23.20;39.40;;;;;;6198100;23;20815;-65
2022/09/21 09:29:35;;;;;;;1.87;1.77;;;23.20;39.30;;;;;;6205848;23;20424;-67
2022/09/21 09:32:02;;;;;;;1.80;1.70;;;23.20;39.40;;;;;;6198893;23;20489;-64
2022/09/21 09:34:35;;;;;;;1.67;1.57;;;23.20;39.40;;;;;;6199288;23;20411;-59
2022/09/21 09:37:13;;;;;;;2.10;2.00;;;23.20;39.40;;;;;;6177624;23;20470;-59
2022/09/21 09:39:41;;;;;;;1.90;1.80;;;23.20;39.40;;;;;;6202808;23;20422;-59
2022/09/21 09:42:15;;;;;;;1.80;1.70;;;23.20;39.40;;;;;;6207301;23;20750;-63
2022/09/21 09:44:57;;;;;;;1.50;1.40;;;23.20;39.40;;;;;;6204759;23;20447;-59
2022/09/21 09:47:46;;;;;;;1.87;1.77;;;23.20;39.40;;;;;;6198990;23;20419;-62
2022/09/21 09:50:26;;;;;;;1.80;1.70;;;23.20;39.40;;;;;;6182140;23;20435;-64
2022/09/21 09:53:03;;;;;;;1.80;1.70;;;23.20;39.40;;;;;;6204804;23;20427;-62
2022/09/21 09:55:36;;;;;;;4.03;1.80;;;23.20;40.10;;;;;;6174358;23;20420;-59
2022/09/21 09:58:02;;;;;;;3.13;1.80;;;23.20;39.40;;;;;;6199406;23;20407;-62
2022/09/21 10:00:27;;;;;;;1.53;1.43;;;23.20;39.40;;;;;;6209447;23;20438;-61
2022/09/21 10:02:57;;;;;;;1.83;1.73;;;23.20;39.40;;;;;;6205954;23;20316;-59
2022/09/21 10:05:30;;;;;;;1.70;1.60;;;23.20;39.30;;;;;;6205776;23;20504;-60
2022/09/21 10:07:56;;;;;;;1.60;1.50;;;23.20;39.40;;;;;;6205278;23;20412;-61
2022/09/21 10:10:23;;;;;;;1.80;1.70;;;23.30;39.50;;;;;;6206527;23;20461;-61
2022/09/21 10:12:51;;;;;;;2.23;2.10;;;23.30;39.50;;;;;;6206042;23;20277;-59
2022/09/21 10:15:17;;;;;;;2.00;1.90;;;23.30;39.50;;;;;;6206942;23;20454;-59
2022/09/21 10:17:47;;;;;;;1.80;1.70;;;23.30;39.50;;;;;;6205109;23;20434;-61
2022/09/21 10:20:19;;;;;;;1.60;1.50;;;23.30;39.40;;;;;;6206657;23;20889;-59
2022/09/21 10:22:52;;;;;;;2.10;2.00;;;23.30;39.40;;;;;;6205918;23;20785;-59
2022/09/21 10:25:19;;;;;;;1.60;1.50;;;23.30;39.40;;;;;;6205887;23;20420;-66
2022/09/21 10:27:48;;;;;;;2.17;1.97;;;23.30;39.50;;;;;;6205100;23;20981;-58
2022/09/21 10:30:29;;;;;;;1.90;1.80;;;23.30;39.50;;;;;;6205042;23;20424;-60
2022/09/21 10:32:56;;;;;;;1.80;1.70;;;23.30;39.40;;;;;;6201336;23;20428;-66
2022/09/21 10:35:22;;;;;;;1.50;1.40;;;23.30;39.40;;;;;;6179040;23;20486;-60
2022/09/21 10:38:07;;;;;;;1.57;1.47;;;23.30;39.80;;;;;;6206104;23;20893;-59
2022/09/21 10:40:35;;;;;;;1.40;1.30;;;23.20;39.40;;;;;;6195930;23;20197;-61
2022/09/21 10:43:01;;;;;;;2.00;1.90;;;23.30;39.40;;;;;;6202491;23;20416;-61
2022/09/21 10:45:36;;;;;;;1.80;1.70;;;23.30;39.50;;;;;;6204646;23;20522;-65
2022/09/21 10:48:17;;;;;;;2.00;1.90;;;23.30;39.40;;;;;;6204555;23;20207;-68
2022/09/21 10:50:44;;;;;;;1.70;1.60;;;23.30;39.50;;;;;;6196276;23;20748;-60
2022/09/21 10:53:27;;;;;;;1.67;1.57;;;23.30;39.50;;;;;;6175195;23;20432;-59
2022/09/21 10:56:15;;;;;;;1.70;1.60;;;23.30;39.40;;;;;;6191686;23;20795;-59
2022/09/21 10:59:12;;;;;;;1.90;1.80;;;23.30;39.50;;;;;;6197287;23;20412;-66
2022/09/21 11:01:47;;;;;;;1.60;1.50;;;23.20;39.30;;;;;;6173722;23;20872;-60
2022/09/21 11:04:43;;;;;;;1.73;1.63;;;23.30;39.50;;;;;;6174828;23;20415;-59
2022/09/21 11:07:23;;;;;;;1.60;1.50;;;23.30;39.40;;;;;;6190455;23;20424;-61
2022/09/21 11:10:02;;;;;;;1.70;1.60;;;23.30;40.30;;;;;;6174947;23;20435;-59
2022/09/21 11:12:50;;;;;;;1.70;1.60;;;23.30;39.50;;;;;;6185716;23;20467;-60
2022/09/21 11:15:22;;;;;;;1.97;1.87;;;23.30;39.50;;;;;;6201666;23;20415;-60
2022/09/21 11:17:59;;;;;;;1.57;1.47;;;23.30;39.50;;;;;;6203279;23;20767;-59
2022/09/21 11:20:32;;;;;;;1.70;1.60;;;23.30;39.50;;;;;;6204662;23;21068;-60
2022/09/21 11:23:01;;;;;;;1.50;1.40;;;23.30;39.50;;;;;;6175506;23;20416;-70
2022/09/21 11:25:52;;;;;;;1.50;1.40;;;23.20;39.50;;;;;;6193801;23;20413;-60
2022/09/21 11:28:24;;;;;;;2.80;1.87;;;23.20;39.50;;;;;;6182283;23;20427;-60
2022/09/21 11:31:00;;;;;;;2.20;1.63;;;23.20;39.50;;;;;;6175047;23;20424;-64
2022/09/21 11:33:38;;;;;;;1.60;1.50;;;23.20;39.50;;;;;;6174279;23;20583;-59
2022/09/21 11:36:38;;;;;;;1.50;1.40;;;23.20;39.40;;;;;;6198797;23;20422;-63
2022/09/21 11:39:40;;;;;;;1.60;1.50;;;23.20;39.50;;;;;;6205020;23;20423;-62
2022/09/21 11:42:34;;;;;;;1.50;1.40;;;23.20;39.50;;;;;;6102655;23;20422;-58
2022/09/21 11:45:02;;;;;;;1.87;1.77;;;23.20;39.50;;;;;;6179962;23;20424;-58
2022/09/21 11:47:38;;;;;;;3.73;2.67;;;23.20;39.50;;;;;;6178845;23;20982;-61
2022/09/21 11:50:18;;;;;;;1.70;1.60;;;23.20;39.50;;;;;;6184343;23;20423;-59
2022/09/21 11:52:52;;;;;;;1.50;1.40;;;23.20;39.50;;;;;;6175638;23;20432;-59
2022/09/21 11:55:22;;;;;;;1.73;1.63;;;23.20;39.50;;;;;;6175689;23;20432;-61
2022/09/21 11:57:53;;;;;;;1.50;1.40;;;23.20;39.60;;;;;;6174610;23;20432;-69
2022/09/21 12:00:20;;;;;;;1.70;1.60;;;23.20;39.50;;;;;;6176251;23;20826;-64
2022/09/21 12:03:34;;;;;;;1.57;1.47;;;23.20;40.30;;;;;;6175125;23;20738;-59
2022/09/21 12:06:17;;;;;;;1.70;1.60;;;23.20;39.60;;;;;;6066389;23;20450;-59
2022/09/21 12:09:01;;;;;;;1.70;1.60;;;23.20;39.60;;;;;;6173739;23;20420;-64
2022/09/21 12:11:47;;;;;;;1.90;1.80;;;23.20;39.60;;;;;;6171452;23;20423;-60
2022/09/21 12:14:23;;;;;;;1.60;1.50;;;23.20;39.60;;;;;;6171782;23;20516;-60
2022/09/21 12:16:54;;;;;;;1.47;1.37;;;23.20;39.50;;;;;;6174231;23;20444;-59
2022/09/21 12:19:38;;;;;;;1.73;1.63;;;23.20;39.60;;;;;;6190950;23;20454;-59
2022/09/21 12:22:10;;;;;;;1.70;1.60;;;23.20;39.60;;;;;;6189454;23;20471;-61
2022/09/21 12:24:44;;;;;;;1.93;1.73;;;23.20;39.60;;;;;;6184334;23;20420;-65
2022/09/21 12:27:27;;;;;;;1.70;1.60;;;23.20;39.60;;;;;;6198610;23;20420;-59
2022/09/21 12:29:59;;;;;;;1.60;1.50;;;23.20;39.50;;;;;;6203144;23;20462;-65
2022/09/21 12:32:46;;;;;;;1.67;1.57;;;23.20;39.50;;;;;;6203880;23;20427;-61
2022/09/21 12:35:20;;;;;;;1.50;1.40;;;23.20;39.60;;;;;;6183717;23;20427;-61
2022/09/21 12:37:50;;;;;;;1.60;1.50;;;23.20;39.60;;;;;;6175982;23;20421;-60
2022/09/21 12:40:37;;;;;;;1.70;1.60;;;23.20;39.60;;;;;;6195972;23;20418;-62
2022/09/21 12:43:40;;;;;;;1.50;1.40;;;23.20;39.60;;;;;;6203940;23;20412;-63
2022/09/21 12:46:14;;;;;;;1.43;1.33;;;23.20;39.50;;;;;;6181411;23;20447;-63
2022/09/21 12:48:41;;;;;;;1.50;1.40;;;23.20;39.60;;;;;;6173028;23;20417;-59
2022/09/21 12:51:10;;;;;;;1.40;1.30;;;23.10;39.50;;;;;;6175530;23;20412;-64
2022/09/21 12:53:39;;;;;;;1.50;1.40;;;23.10;39.50;;;;;;6172376;23;20456;-62
2022/09/21 12:56:23;;;;;;;1.60;1.50;;;23.20;39.50;;;;;;6175436;23;21092;-67
2022/09/21 12:59:15;;;;;;;1.47;1.37;;;23.20;39.50;;;;;;6172858;23;21004;-59
2022/09/21 13:01:51;;;;;;;1.60;1.50;;;23.10;39.40;;;;;;6196130;23;20412;-59
2022/09/21 13:04:50;;;;;;;2.90;1.40;;;23.20;39.60;;;;;;6205417;23;20454;-59
2022/09/21 13:07:34;;;;;;;1.20;1.10;;;23.20;39.60;;;;;;6202208;23;20415;-62
2022/09/21 13:10:13;;;;;;;1.70;1.53;;;23.10;39.40;;;;;;6197027;23;20416;-68
2022/09/21 13:12:43;;;;;;;1.60;1.50;;;23.10;39.50;;;;;;6177570;23;20744;-62
2022/09/21 13:15:18;;;;;;;3.00;1.80;;;23.10;39.40;;;;;;6204488;23;20934;-68
2022/09/21 13:17:44;;;;;;;1.40;1.30;;;23.10;39.40;;;;;;6203126;23;20446;-66